Plymouth, MN (55441)

12:17 AM CDT on September 01, 2015 (GMT -0500)
Ensign ave @ Medley Hills Park | | Change Station
CLOSE
Current Station
Personal Weather Station
Location: Minneapolis, MN
Elevation: 943 ft
Nearby Weather Stations

Elev 943 ft 45.01 °N, 93.40 °W | Updated 3 minutes ago

Partly Cloudy
Partly Cloudy
73.7 °F
Feels Like 72 °F
N
0.0
Wind Variable Wind from SE
Gusts 2.0 mph

Today
High -- | Low -- °F
--% Chance of Precip.
Yesterday
High -- | Low -- °F
Precip. -- in
6:35 AM 7:51 PM
Waning Gibbous, 91% visible
Pressure 29.88 in
Visibility 7.0 miles
Clouds Mostly Cloudy 3800 ft
Heat Index 72 °F
Dew Point 71 °F
Humidity 91%
Rainfall 0.00 in
Snow Depth Not available.
UV 0 out of 12
Pollen 9.40 out of 12
Air Quality Not available.
Flu Activity Not available.
METAR KMIC 010453Z AUTO 18004KT 7SM BKN038 24/21 A2990 RMK AO2 SLP118 T02440211
Pressure 29.88 in
Visibility 7.0 miles
Clouds Mostly Cloudy 3800 ft
Heat Index 72 °F
Dew Point 71 °F
Humidity 91%
Rainfall 0.00 in
Snow Depth Not available.
UV 0 out of 12
Pollen 9.40 out of 12
Air Quality Not available.
Flu Activity Not available.
METAR KMIC 010453Z AUTO 18004KT 7SM BKN038 24/21 A2990 RMK AO2 SLP118 T02440211

10-Day Weather Forecast

×

Almanac

Astronomy

Sep. 01, 2015 Rise Set
Actual Time
Civil Twilight
Nautical Twilight
Astronomical Twilight
Moon
Length of Visible Light
Length of Day
Tomorrow will be .
, % of the Moon is Illuminated

Today's Extremes

State Highs State Lows

Community

WunderPhotos

Upload Photos

1,851,479 photos uploaded!

WunderBlogs® & News

Nearby

Air Quality

  Air Quality AQ Index Pollutant
Not available.

Snow Depth

Station Depth Elevation

Earthquake Activity

City Distance Mag. Time & Date
Minimum magnitude displayed is 2.5.

Coastal Water Temperatures

Place Temperature

Stations

Nearby Weather Stations

Station Location Temp. Windchill Dew Point Humidity Wind Precip. Elev Updated Type